Time;durP1;ratioP1;P1;durP2;ratioP2;P2;SDS_P1;SDS_P2;PMS_P1;PMS_P2;Temp;Humidity;BMP_temperature;BMP_pressure;BME280_temperature;BME280_humidity;BME280_pressure;Samples;Min_cycle;Max_cycle;Signal;HPM_P1;HPM_P2
2021/05/09 00:02:13;;;;;;;5.53;2.70;;;15.20;88.30;;;;;;5031473;28;20038;-87
2021/05/09 00:04:39;;;;;;;6.10;3.00;;;15.20;89.00;;;;;;4997587;28;20053;-87
2021/05/09 00:07:06;;;;;;;8.48;3.00;;;15.10;88.50;;;;;;4981984;28;20057;-86
2021/05/09 00:09:31;;;;;;;6.18;3.10;;;15.20;88.70;;;;;;5014606;28;20032;-86
2021/05/09 00:11:57;;;;;;;4.88;2.83;;;15.10;88.60;;;;;;4997986;28;20120;-87
2021/05/09 00:14:24;;;;;;;5.95;3.13;;;15.10;88.80;;;;;;5027719;28;20037;-87
2021/05/09 00:16:50;;;;;;;4.53;2.60;;;15.10;88.60;;;;;;5004362;28;20053;-87
2021/05/09 00:19:15;;;;;;;10.25;2.88;;;15.00;88.70;;;;;;5014008;28;20022;-87
2021/05/09 00:21:41;;;;;;;5.30;3.00;;;15.00;88.60;;;;;;4998021;28;20045;-87
2021/05/09 00:24:07;;;;;;;4.93;2.90;;;15.10;88.80;;;;;;5031151;28;20033;-86
2021/05/09 00:26:34;;;;;;;7.15;3.45;;;15.10;88.80;;;;;;4997931;28;20032;-87
2021/05/09 00:29:00;;;;;;;7.50;3.30;;;15.10;88.70;;;;;;5014611;28;20018;-87
2021/05/09 00:31:26;;;;;;;6.22;2.88;;;15.00;88.50;;;;;;5014380;28;20026;-87
2021/05/09 00:33:52;;;;;;;7.45;3.13;;;15.00;89.10;;;;;;5014214;28;20141;-87
2021/05/09 00:36:18;;;;;;;5.60;2.97;;;15.00;88.60;;;;;;5012558;28;20035;-87
2021/05/09 00:38:43;;;;;;;6.47;2.88;;;15.00;88.60;;;;;;4998010;28;20030;-86
2021/05/09 00:41:09;;;;;;;7.40;3.25;;;15.00;88.60;;;;;;5015351;28;20036;-87
2021/05/09 00:43:35;;;;;;;5.38;3.03;;;15.00;88.50;;;;;;5015494;28;20014;-86
2021/05/09 00:46:00;;;;;;;7.00;3.35;;;15.00;88.50;;;;;;5015367;28;20364;-87
2021/05/09 00:48:26;;;;;;;6.78;3.40;;;15.00;88.70;;;;;;5015850;28;20029;-86
2021/05/09 00:50:51;;;;;;;6.10;3.00;;;14.90;88.70;;;;;;5014342;28;20060;-86
2021/05/09 00:53:22;;;;;;;7.75;3.13;;;15.00;89.20;;;;;;5014467;28;20188;-86
2021/05/09 00:55:49;;;;;;;6.45;3.22;;;14.90;88.60;;;;;;5015534;28;20414;-87
2021/05/09 00:58:17;;;;;;;6.80;2.80;;;14.90;88.50;;;;;;4981219;28;20030;-86
2021/05/09 01:00:43;;;;;;;5.40;2.65;;;15.00;88.60;;;;;;5013735;28;20041;-87
2021/05/09 01:03:12;;;;;;;5.63;3.38;;;14.90;88.70;;;;;;4997564;28;20080;-87
2021/05/09 01:05:37;;;;;;;7.00;3.22;;;14.90;88.70;;;;;;5011211;28;20058;-87
2021/05/09 01:08:03;;;;;;;9.05;3.05;;;14.90;88.80;;;;;;5001082;28;20026;-88
2021/05/09 01:10:30;;;;;;;7.53;3.13;;;14.90;88.80;;;;;;5029895;28;20059;-87
2021/05/09 01:12:56;;;;;;;4.38;2.72;;;14.90;88.90;;;;;;5013147;28;20029;-87
2021/05/09 01:15:22;;;;;;;5.28;2.60;;;14.90;89.00;;;;;;4995585;28;20030;-87
2021/05/09 01:17:48;;;;;;;6.82;3.00;;;14.80;89.00;;;;;;5013037;28;20022;-87
2021/05/09 01:20:14;;;;;;;6.30;3.33;;;14.80;89.00;;;;;;4980653;28;20041;-87
2021/05/09 01:22:41;;;;;;;5.50;3.00;;;14.80;89.10;;;;;;5014410;28;20022;-87
2021/05/09 01:25:08;;;;;;;5.50;2.88;;;14.70;89.20;;;;;;5013388;28;20022;-87
2021/05/09 01:27:34;;;;;;;5.50;2.83;;;14.70;89.20;;;;;;4981478;28;20116;-86
2021/05/09 01:30:00;;;;;;;6.28;3.20;;;14.60;89.20;;;;;;5014583;28;20034;-87
2021/05/09 01:35:48;;;;;;;5.55;3.20;;;14.50;89.50;;;;;;5016359;28;20036;-87
2021/05/09 01:38:14;;;;;;;6.55;3.70;;;14.40;89.70;;;;;;5014259;28;20025;-87
2021/05/09 01:40:39;;;;;;;5.78;3.25;;;14.40;89.80;;;;;;5029833;28;20472;-87
2021/05/09 01:43:05;;;;;;;5.75;3.05;;;14.30;90.00;;;;;;4997085;28;20025;-87
2021/05/09 01:45:31;;;;;;;6.00;2.80;;;14.30;90.00;;;;;;5014121;28;20026;-86
2021/05/09 01:47:57;;;;;;;7.00;3.40;;;14.30;90.10;;;;;;4997239;28;20022;-87
2021/05/09 01:50:22;;;;;;;5.38;3.20;;;14.30;90.20;;;;;;5029154;28;20125;-87
2021/05/09 01:52:48;;;;;;;6.65;2.92;;;14.30;90.20;;;;;;4996571;28;20030;-87
2021/05/09 01:55:24;;;;;;;8.27;3.63;;;14.20;90.30;;;;;;4996097;28;20429;-87
2021/05/09 01:57:50;;;;;;;6.22;2.95;;;14.20;90.30;;;;;;5012513;28;20029;-87
2021/05/09 02:00:21;;;;;;;7.00;3.17;;;14.20;90.40;;;;;;5012391;28;20456;-87
2021/05/09 02:02:47;;;;;;;6.22;3.05;;;14.20;90.40;;;;;;4996280;28;20034;-87
2021/05/09 02:05:15;;;;;;;7.95;3.20;;;14.20;90.40;;;;;;4996083;28;20048;-88
2021/05/09 02:07:41;;;;;;;6.60;3.00;;;14.20;90.40;;;;;;4996485;28;20030;-88
2021/05/09 02:10:09;;;;;;;4.70;3.13;;;14.20;90.50;;;;;;5012675;28;20026;-87
2021/05/09 02:12:35;;;;;;;7.85;3.80;;;14.10;90.50;;;;;;5012346;28;20034;-88
2021/05/09 02:15:01;;;;;;;5.30;3.00;;;14.10;90.40;;;;;;5012256;28;20037;-87
2021/05/09 02:17:27;;;;;;;6.95;3.10;;;14.10;90.50;;;;;;5013083;28;20032;-87
2021/05/09 02:19:53;;;;;;;5.00;3.05;;;14.10;90.50;;;;;;4996460;28;20029;-87
2021/05/09 02:22:18;;;;;;;7.40;3.45;;;14.00;90.60;;;;;;4979684;28;20076;-87
2021/05/09 02:24:45;;;;;;;8.07;3.40;;;14.00;90.70;;;;;;5012241;28;20026;-87
2021/05/09 02:27:11;;;;;;;5.82;3.25;;;14.00;90.70;;;;;;4995683;28;20088;-87
2021/05/09 02:29:37;;;;;;;5.10;3.10;;;14.00;90.80;;;;;;5012202;28;20464;-87
2021/05/09 02:32:04;;;;;;;5.60;3.15;;;13.90;90.90;;;;;;5012014;28;20034;-87
2021/05/09 02:34:31;;;;;;;5.68;2.97;;;13.90;90.90;;;;;;5013448;28;20054;-87
2021/05/09 02:37:01;;;;;;;6.03;3.53;;;13.90;90.90;;;;;;5012217;28;20112;-87
2021/05/09 02:39:26;;;;;;;5.25;2.85;;;13.80;91.00;;;;;;5012647;28;20022;-88
2021/05/09 02:41:52;;;;;;;4.68;3.00;;;13.80;91.10;;;;;;4996064;28;20025;-87
2021/05/09 02:44:18;;;;;;;4.47;3.03;;;13.80;91.10;;;;;;5011889;28;20476;-87
2021/05/09 02:46:43;;;;;;;6.10;3.42;;;13.80;91.10;;;;;;5012218;28;20491;-88
2021/05/09 02:49:09;;;;;;;5.40;3.15;;;13.80;91.20;;;;;;4996324;28;20061;-88
2021/05/09 02:51:35;;;;;;;5.70;3.58;;;13.70;91.20;;;;;;5011755;28;20503;-87
2021/05/09 02:54:01;;;;;;;4.57;3.20;;;13.70;91.20;;;;;;4978560;28;20109;-88
2021/05/09 02:56:27;;;;;;;5.68;3.08;;;13.70;91.20;;;;;;4996159;28;20038;-88
2021/05/09 02:58:52;;;;;;;5.75;2.95;;;13.70;91.30;;;;;;4996505;28;20399;-88
2021/05/09 03:01:18;;;;;;;6.20;3.35;;;13.60;91.30;;;;;;5012884;28;20419;-87
2021/05/09 03:03:44;;;;;;;5.82;3.22;;;13.60;91.30;;;;;;5041864;22;20406;-87
2021/05/09 03:06:09;;;;;;;5.22;3.05;;;13.60;91.30;;;;;;5037379;28;20040;-88
2021/05/09 03:08:35;;;;;;;5.18;3.33;;;13.60;91.40;;;;;;5038265;28;20047;-88
2021/05/09 03:11:01;;;;;;;5.60;3.30;;;13.60;91.40;;;;;;5055168;28;20036;-88
2021/05/09 03:13:27;;;;;;;6.32;3.50;;;13.60;91.50;;;;;;5055104;28;20162;-87
2021/05/09 03:15:53;;;;;;;6.88;3.20;;;13.50;91.50;;;;;;5054753;28;20107;-87
2021/05/09 03:18:20;;;;;;;6.57;3.30;;;13.50;91.50;;;;;;5054964;28;20036;-87
2021/05/09 03:20:45;;;;;;;8.32;3.53;;;13.50;91.50;;;;;;5054850;28;20025;-87
2021/05/09 03:23:11;;;;;;;6.75;3.53;;;13.50;91.60;;;;;;5038795;28;20028;-87
2021/05/09 03:25:37;;;;;;;4.85;3.08;;;13.50;91.70;;;;;;5034911;28;20029;-88
2021/05/09 03:28:03;;;;;;;5.05;3.33;;;13.40;91.70;;;;;;5022261;28;20024;-87
2021/05/09 03:30:28;;;;;;;7.18;3.78;;;13.40;91.70;;;;;;5055121;28;20028;-88
2021/05/09 03:32:54;;;;;;;7.47;4.10;;;13.40;91.70;;;;;;5054859;28;20025;-88
2021/05/09 03:35:23;;;;;;;7.10;3.97;;;13.30;91.70;;;;;;5035139;28;20017;-88
2021/05/09 03:37:49;;;;;;;6.15;3.85;;;13.30;91.90;;;;;;5051924;28;20044;-88
2021/05/09 03:40:15;;;;;;;7.68;4.10;;;13.20;91.90;;;;;;5075916;28;20033;-88
2021/05/09 03:42:42;;;;;;;8.30;4.13;;;13.20;92.10;;;;;;5064968;28;20145;-87
2021/05/09 03:45:08;;;;;;;7.93;3.65;;;13.20;92.20;;;;;;5046587;28;20454;-87
2021/05/09 03:47:35;;;;;;;6.63;3.60;;;13.10;92.20;;;;;;5062270;28;20044;-88
2021/05/09 03:50:02;;;;;;;7.22;3.90;;;13.10;92.30;;;;;;5042483;28;20040;-87
2021/05/09 03:52:28;;;;;;;8.55;4.03;;;13.10;92.30;;;;;;5068661;28;20029;-88
2021/05/09 03:54:53;;;;;;;8.48;3.80;;;13.10;92.40;;;;;;5025974;28;20028;-88
2021/05/09 03:57:19;;;;;;;6.57;3.50;;;13.10;92.40;;;;;;5058326;28;20025;-87
2021/05/09 03:59:45;;;;;;;7.95;3.97;;;13.10;92.50;;;;;;5074824;28;20040;-87
2021/05/09 04:02:10;;;;;;;5.57;3.72;;;13.10;92.50;;;;;;5041975;28;20020;-87
2021/05/09 04:04:36;;;;;;;5.88;3.42;;;13.10;92.80;;;;;;5041600;28;20120;-88
2021/05/09 04:07:02;;;;;;;5.82;3.40;;;13.10;92.50;;;;;;5055638;28;20025;-88
2021/05/09 04:09:28;;;;;;;5.18;3.30;;;13.10;92.60;;;;;;5041329;28;20123;-87
2021/05/09 04:11:54;;;;;;;5.78;3.05;;;13.10;92.60;;;;;;5053991;28;20501;-87
2021/05/09 04:14:20;;;;;;;5.22;3.30;;;13.10;92.60;;;;;;5041057;28;20089;-87
2021/05/09 04:16:45;;;;;;;5.38;3.40;;;13.10;92.60;;;;;;5041133;28;20053;-87
2021/05/09 04:19:11;;;;;;;4.88;3.13;;;13.10;92.60;;;;;;5041265;28;20064;-87
2021/05/09 04:21:36;;;;;;;5.93;3.40;;;13.20;92.60;;;;;;5050165;28;20091;-87
2021/05/09 04:24:03;;;;;;;6.22;2.92;;;13.10;92.60;;;;;;5022592;28;20378;-88
2021/05/09 04:26:29;;;;;;;5.40;3.05;;;13.20;92.70;;;;;;5039719;28;20078;-88
2021/05/09 04:28:54;;;;;;;6.10;3.33;;;13.20;92.70;;;;;;5057241;28;20032;-87
2021/05/09 04:31:20;;;;;;;5.30;2.80;;;13.20;92.70;;;;;;5053120;28;20017;-87
2021/05/09 04:33:46;;;;;;;5.53;3.13;;;13.20;92.70;;;;;;5037892;28;20025;-87
2021/05/09 04:36:12;;;;;;;4.32;3.03;;;13.20;92.80;;;;;;5043635;28;20028;-87
2021/05/09 04:38:37;;;;;;;5.93;3.10;;;13.20;92.80;;;;;;5048394;28;20086;-87
2021/05/09 04:41:03;;;;;;;4.82;3.17;;;13.30;92.80;;;;;;5038428;28;20028;-87
2021/05/09 04:43:28;;;;;;;4.88;3.10;;;13.30;92.80;;;;;;5031645;28;20074;-87
2021/05/09 04:45:55;;;;;;;6.15;3.33;;;13.30;92.90;;;;;;5040359;28;20363;-87
2021/05/09 04:48:22;;;;;;;5.90;3.30;;;13.30;92.80;;;;;;5057634;28;20048;-87
2021/05/09 04:50:48;;;;;;;6.70;3.42;;;13.30;92.80;;;;;;5056495;28;20028;-87
2021/05/09 04:53:34;;;;;;;5.88;3.20;;;13.30;92.90;;;;;;5060284;28;20025;-88
2021/05/09 04:56:01;;;;;;;5.30;3.13;;;13.30;92.90;;;;;;5062754;28;20024;-88
2021/05/09 04:58:28;;;;;;;6.32;3.38;;;13.30;92.90;;;;;;5045691;28;20024;-87
2021/05/09 05:01:00;;;;;;;5.70;3.50;;;13.30;93.00;;;;;;5074769;28;20078;-87
2021/05/09 05:03:30;;;;;;;6.45;3.20;;;13.30;93.00;;;;;;5040873;28;20021;-88
2021/05/09 05:05:56;;;;;;;6.40;3.55;;;13.30;93.30;;;;;;5040349;28;20093;-87
2021/05/09 05:08:22;;;;;;;7.43;3.40;;;13.30;93.00;;;;;;5056489;28;20063;-88
2021/05/09 05:10:51;;;;;;;7.25;3.50;;;13.30;93.20;;;;;;5060966;28;20044;-87
2021/05/09 05:13:31;;;;;;;4.38;3.30;;;13.30;93.20;;;;;;5046796;28;20025;-87
2021/05/09 05:16:02;;;;;;;5.47;3.70;;;13.30;93.30;;;;;;5044242;28;20040;-87
2021/05/09 05:18:29;;;;;;;5.60;3.70;;;13.40;93.30;;;;;;5073275;28;20032;-88
2021/05/09 05:20:57;;;;;;;5.63;3.50;;;13.40;93.70;;;;;;5040201;28;20036;-88
2021/05/09 05:23:22;;;;;;;5.70;3.67;;;13.40;93.40;;;;;;5074379;28;20103;-87
2021/05/09 05:26:00;;;;;;;7.18;3.20;;;13.50;93.50;;;;;;5071864;28;20103;-87
2021/05/09 05:28:26;;;;;;;4.80;3.20;;;13.50;93.50;;;;;;5059188;28;20172;-87
2021/05/09 05:30:52;;;;;;;4.93;3.30;;;13.60;93.40;;;;;;5056394;28;20119;-88
2021/05/09 05:33:29;;;;;;;6.63;3.25;;;13.60;93.40;;;;;;5050231;28;20056;-87
2021/05/09 05:35:56;;;;;;;6.40;3.50;;;13.70;93.40;;;;;;5073944;28;20070;-87
2021/05/09 05:38:22;;;;;;;5.72;3.20;;;13.70;93.40;;;;;;5050171;28;20025;-87
2021/05/09 05:40:50;;;;;;;8.02;3.25;;;13.70;93.40;;;;;;5040453;28;20024;-87
2021/05/09 05:43:15;;;;;;;5.30;3.10;;;13.80;93.40;;;;;;5074567;28;20044;-87
2021/05/09 05:45:41;;;;;;;4.60;3.20;;;13.80;93.30;;;;;;5056242;28;20141;-88
2021/05/09 05:48:07;;;;;;;5.82;3.00;;;13.90;93.30;;;;;;5041904;28;20024;-87
2021/05/09 05:50:32;;;;;;;4.88;2.85;;;13.90;93.20;;;;;;5031785;28;20044;-88
2021/05/09 05:52:58;;;;;;;6.70;3.38;;;13.90;93.10;;;;;;5054012;28;20021;-87
2021/05/09 05:55:24;;;;;;;5.80;2.80;;;14.00;93.10;;;;;;5056498;28;20035;-87
2021/05/09 05:57:49;;;;;;;6.50;3.20;;;14.00;93.00;;;;;;5039452;28;20024;-88
2021/05/09 06:00:16;;;;;;;6.57;3.30;;;14.00;92.90;;;;;;5054953;28;20056;-87
2021/05/09 06:02:41;;;;;;;4.45;2.95;;;14.00;92.90;;;;;;5038573;28;20043;-87
2021/05/09 06:05:07;;;;;;;5.68;3.28;;;14.00;92.80;;;;;;5039277;28;20048;-87
2021/05/09 06:07:33;;;;;;;5.13;2.75;;;14.10;92.80;;;;;;5034263;28;20523;-87
2021/05/09 06:09:59;;;;;;;4.90;3.17;;;14.10;92.80;;;;;;5038584;28;20024;-87
2021/05/09 06:12:24;;;;;;;6.13;3.08;;;14.10;92.80;;;;;;5038821;28;20028;-87
2021/05/09 06:14:50;;;;;;;5.53;3.10;;;14.10;92.70;;;;;;5019400;28;20098;-87
2021/05/09 06:17:15;;;;;;;8.07;3.00;;;14.20;92.60;;;;;;5053642;28;20039;-87
2021/05/09 06:19:41;;;;;;;5.70;2.80;;;14.20;92.70;;;;;;5038520;28;20028;-87
2021/05/09 06:22:07;;;;;;;5.93;3.22;;;14.20;92.70;;;;;;5020924;28;20032;-87
2021/05/09 06:24:32;;;;;;;6.18;3.15;;;14.30;92.40;;;;;;5043870;28;20458;-87
2021/05/09 06:26:58;;;;;;;6.03;2.90;;;14.30;92.40;;;;;;5054513;28;20324;-86
2021/05/09 06:29:23;;;;;;;6.47;3.00;;;14.40;92.20;;;;;;5058676;28;20331;-86
2021/05/09 06:31:49;;;;;;;5.40;2.50;;;14.40;92.20;;;;;;5051666;28;20025;-87
2021/05/09 06:34:15;;;;;;;5.72;3.10;;;14.50;92.30;;;;;;5058388;28;20052;-87
2021/05/09 06:36:40;;;;;;;5.20;2.75;;;14.60;92.30;;;;;;5038105;28;20386;-87
2021/05/09 06:39:06;;;;;;;6.60;3.85;;;14.60;92.30;;;;;;5032749;28;20031;-88
2021/05/09 06:41:34;;;;;;;5.50;3.08;;;14.70;92.20;;;;;;5054743;28;20031;-88
2021/05/09 06:44:02;;;;;;;5.38;3.05;;;14.80;92.10;;;;;;5025465;28;20029;-89
2021/05/09 06:46:28;;;;;;;5.13;2.70;;;14.90;91.90;;;;;;5055095;28;20024;-88
2021/05/09 06:48:54;;;;;;;4.45;2.95;;;15.00;91.90;;;;;;5055199;28;20024;-88
2021/05/09 06:51:20;;;;;;;5.20;2.88;;;15.10;91.70;;;;;;5050503;28;20032;-89
2021/05/09 06:53:46;;;;;;;6.68;2.75;;;15.10;91.50;;;;;;5038580;28;20055;-89
2021/05/09 06:56:12;;;;;;;7.80;2.85;;;15.20;90.80;;;;;;5038723;28;20032;-89
2021/05/09 06:58:38;;;;;;;4.20;2.63;;;15.30;91.10;;;;;;5019405;28;20684;-89
2021/05/09 07:01:03;;;;;;;2.97;2.20;;;15.40;91.20;;;;;;5043392;28;20025;-88
2021/05/09 07:03:29;;;;;;;4.22;2.30;;;15.50;90.60;;;;;;5020305;28;20017;-89
2021/05/09 07:05:55;;;;;;;4.22;2.55;;;15.70;90.30;;;;;;5041544;28;20445;-88
2021/05/09 07:08:21;;;;;;;3.40;2.20;;;15.80;90.10;;;;;;5036091;28;20037;-89
2021/05/09 07:10:47;;;;;;;2.83;2.10;;;15.90;90.10;;;;;;5033435;28;20489;-89
2021/05/09 07:13:13;;;;;;;3.50;2.22;;;16.00;90.10;;;;;;5051849;28;20036;-90
2021/05/09 07:15:40;;;;;;;5.53;2.40;;;16.10;88.60;;;;;;5028929;28;20032;-89
2021/05/09 07:18:20;;;;;;;5.15;2.58;;;16.10;89.00;;;;;;5033546;28;20055;-89
2021/05/09 07:20:51;;;;;;;4.20;2.10;;;16.20;89.30;;;;;;5022580;28;20475;-89
2021/05/09 07:23:17;;;;;;;;;;;16.30;89.50;;;;;;5044282;28;20033;-90
2021/05/09 07:25:43;;;;;;;3.97;1.90;;;16.40;88.40;;;;;;5045374;28;19958;-88
2021/05/09 07:28:13;;;;;;;4.75;2.63;;;16.50;87.80;;;;;;5057056;28;20021;-90
2021/05/09 07:30:43;;;;;;;3.92;2.00;;;16.60;87.10;;;;;;5024858;28;20044;-88
2021/05/09 07:33:12;;;;;;;4.53;2.33;;;16.70;87.20;;;;;;5058953;28;20609;-89
2021/05/09 07:35:38;;;;;;;4.10;2.20;;;16.80;86.70;;;;;;5056589;28;20478;-90
2021/05/09 07:38:05;;;;;;;4.00;2.10;;;16.90;86.50;;;;;;5060989;28;20529;-89
2021/05/09 07:40:31;;;;;;;4.55;2.55;;;17.10;85.10;;;;;;5040275;28;20048;-87
2021/05/09 07:42:56;;;;;;;3.15;1.85;;;17.20;84.70;;;;;;5039926;28;20377;-87
2021/05/09 07:45:23;;;;;;;3.50;1.88;;;17.30;84.80;;;;;;5039410;28;20021;-87
2021/05/09 07:47:50;;;;;;;4.10;2.20;;;17.40;84.30;;;;;;5038983;28;20040;-86
2021/05/09 07:50:17;;;;;;;3.70;2.30;;;17.50;84.80;;;;;;5051866;28;20032;-86
2021/05/09 07:52:49;;;;;;;4.47;1.95;;;17.50;84.40;;;;;;5029839;28;20563;-86
2021/05/09 07:55:16;;;;;;;3.88;2.22;;;17.60;83.70;;;;;;5033574;28;20029;-86
2021/05/09 07:57:45;;;;;;;4.82;2.40;;;17.60;83.30;;;;;;5048488;28;20033;-87
2021/05/09 08:00:16;;;;;;;4.85;2.28;;;17.70;84.20;;;;;;5036473;28;20021;-86
2021/05/09 08:02:51;;;;;;;;;;;17.80;82.70;;;;;;5051835;28;20450;-87
2021/05/09 08:05:22;;;;;;;4.05;2.40;;;17.90;82.40;;;;;;5043142;28;19960;-86
2021/05/09 08:07:55;;;;;;;2.70;1.95;;;18.00;83.90;;;;;;5056822;28;20069;-86
2021/05/09 08:10:23;;;;;;;4.88;2.47;;;18.10;84.20;;;;;;5023678;28;20024;-85
2021/05/09 08:12:49;;;;;;;5.80;2.13;;;18.20;83.60;;;;;;5037641;28;20043;-85
2021/05/09 08:15:16;;;;;;;3.97;2.25;;;18.30;83.80;;;;;;5056573;28;20032;-86
2021/05/09 08:17:43;;;;;;;5.63;2.42;;;18.50;82.80;;;;;;5039979;28;20045;-86
2021/05/09 08:20:09;;;;;;;2.50;1.92;;;18.60;82.20;;;;;;5048065;28;20032;-86
2021/05/09 08:22:35;;;;;;;4.07;2.53;;;18.80;82.90;;;;;;5059447;28;20025;-86
2021/05/09 08:25:01;;;;;;;4.82;2.55;;;18.90;80.60;;;;;;5042522;28;20063;-86
2021/05/09 08:27:30;;;;;;;4.40;2.60;;;19.00;81.80;;;;;;5074224;28;20028;-85
2021/05/09 08:29:56;;;;;;;5.15;2.60;;;19.10;80.80;;;;;;5043615;28;20033;-86
2021/05/09 08:32:22;;;;;;;5.72;3.03;;;19.10;80.90;;;;;;5056931;28;20048;-86
2021/05/09 08:34:48;;;;;;;3.92;2.40;;;19.20;80.40;;;;;;5074642;28;20493;-86
2021/05/09 08:37:14;;;;;;;4.90;2.78;;;19.30;80.20;;;;;;5056692;28;20039;-86
2021/05/09 08:39:40;;;;;;;3.45;2.25;;;19.30;79.30;;;;;;5039380;28;20438;-86
2021/05/09 08:42:06;;;;;;;5.00;2.67;;;19.40;80.30;;;;;;5023533;28;20428;-86
2021/05/09 08:44:35;;;;;;;5.22;2.60;;;19.60;80.50;;;;;;5039963;28;20025;-86
2021/05/09 08:47:03;;;;;;;3.90;2.22;;;19.70;80.60;;;;;;5052583;28;20056;-84
2021/05/09 08:49:32;;;;;;;3.30;2.10;;;19.80;79.90;;;;;;5072527;28;20017;-84
2021/05/09 08:51:58;;;;;;;5.40;2.17;;;20.00;79.30;;;;;;5052699;28;20061;-84
2021/05/09 08:54:24;;;;;;;3.90;2.13;;;20.10;78.70;;;;;;5040369;28;20053;-83
2021/05/09 08:56:50;;;;;;;5.80;2.40;;;20.20;76.70;;;;;;5048698;28;20052;-84
2021/05/09 08:59:15;;;;;;;2.85;1.90;;;20.30;76.80;;;;;;5031340;28;20474;-84
2021/05/09 09:01:42;;;;;;;4.72;2.40;;;20.40;76.10;;;;;;5074136;28;20047;-84
2021/05/09 09:04:08;;;;;;;4.10;2.10;;;20.50;75.30;;;;;;5073387;22;20062;-83
2021/05/09 09:06:44;;;;;;;2.97;2.00;;;20.60;75.60;;;;;;5082278;28;20039;-84
2021/05/09 09:09:20;;;;;;;3.92;2.20;;;20.70;75.40;;;;;;5080895;28;20040;-84
2021/05/09 09:11:56;;;;;;;3.63;2.17;;;20.80;76.20;;;;;;5093329;28;20024;-84
2021/05/09 09:14:26;;;;;;;3.22;1.98;;;20.90;75.20;;;;;;5101467;28;20536;-84
2021/05/09 09:17:13;;;;;;;3.10;1.80;;;21.00;75.50;;;;;;5070618;28;20024;-84
2021/05/09 09:20:00;;;;;;;3.28;2.00;;;21.10;75.30;;;;;;5096454;28;20027;-84
2021/05/09 09:22:27;;;;;;;4.32;2.38;;;21.20;75.30;;;;;;5096330;28;20019;-84
2021/05/09 09:25:06;;;;;;;4.10;1.90;;;21.20;74.20;;;;;;5091623;28;20427;-85
2021/05/09 09:27:32;;;;;;;4.35;2.50;;;21.30;75.50;;;;;;5078024;28;20379;-84
2021/05/09 09:30:04;;;;;;;5.03;2.30;;;21.40;74.70;;;;;;5088954;28;20110;-84
2021/05/09 09:32:29;;;;;;;6.72;2.70;;;21.50;74.10;;;;;;5096631;28;20051;-84
2021/05/09 09:34:55;;;;;;;3.20;2.10;;;21.60;73.70;;;;;;5067159;28;20078;-84
2021/05/09 09:37:21;;;;;;;3.47;1.92;;;21.60;73.50;;;;;;5071816;28;20026;-83
2021/05/09 09:39:59;;;;;;;4.30;2.17;;;21.80;74.00;;;;;;5086146;28;20085;-84
2021/05/09 09:42:40;;;;;;;3.10;1.90;;;21.80;72.70;;;;;;5091436;28;20074;-84
2021/05/09 09:45:20;;;;;;;4.35;2.47;;;21.90;74.30;;;;;;5084434;28;20098;-84
2021/05/09 09:47:47;;;;;;;2.85;2.05;;;21.80;72.40;;;;;;5096006;28;20016;-84
2021/05/09 09:50:32;;;;;;;7.60;2.33;;;21.80;72.10;;;;;;5096442;28;20066;-84
2021/05/09 09:52:58;;;;;;;4.57;2.30;;;21.80;73.10;;;;;;5078548;28;20072;-84
2021/05/09 09:55:24;;;;;;;3.42;1.90;;;21.90;72.60;;;;;;5082047;28;20052;-84
2021/05/09 09:58:01;;;;;;;4.15;2.03;;;21.90;72.70;;;;;;5090957;28;20022;-84
2021/05/09 10:00:27;;;;;;;4.20;1.85;;;21.90;73.40;;;;;;5113714;28;20069;-85
2021/05/09 10:02:54;;;;;;;3.97;2.00;;;21.90;72.90;;;;;;5087818;28;20024;-84
2021/05/09 10:05:20;;;;;;;4.38;2.10;;;21.90;73.60;;;;;;5081838;28;20067;-84
2021/05/09 10:07:46;;;;;;;4.80;1.80;;;21.90;73.90;;;;;;5086130;28;20058;-85
2021/05/09 10:10:13;;;;;;;3.83;2.00;;;21.90;75.20;;;;;;5064899;28;20057;-84
2021/05/09 10:12:39;;;;;;;5.15;2.38;;;22.00;75.30;;;;;;5084031;28;20136;-85
2021/05/09 10:15:06;;;;;;;4.05;2.20;;;22.10;74.80;;;;;;5099289;28;20059;-84
2021/05/09 10:17:32;;;;;;;5.13;2.35;;;22.20;73.60;;;;;;5081910;28;20072;-84
2021/05/09 10:19:58;;;;;;;3.63;2.03;;;22.30;73.00;;;;;;5077824;28;20115;-85
2021/05/09 10:22:24;;;;;;;3.22;2.30;;;22.40;72.90;;;;;;5070940;28;20089;-84
2021/05/09 10:24:50;;;;;;;3.85;2.03;;;22.50;72.40;;;;;;5066649;28;20120;-84
2021/05/09 10:27:16;;;;;;;5.75;2.30;;;22.60;71.90;;;;;;5047983;28;20508;-85
2021/05/09 10:29:41;;;;;;;7.28;2.42;;;22.70;71.30;;;;;;5094928;28;20036;-84
2021/05/09 10:32:08;;;;;;;5.35;2.17;;;22.80;71.30;;;;;;5083576;28;20481;-84
2021/05/09 10:34:55;;;;;;;5.85;2.47;;;22.90;71.10;;;;;;5113201;28;20038;-84
2021/05/09 10:37:40;;;;;;;4.95;2.47;;;23.00;70.60;;;;;;5091383;28;20020;-84
2021/05/09 10:40:31;;;;;;;6.00;2.40;;;23.00;71.40;;;;;;5093600;28;20089;-84
2021/05/09 10:43:03;;;;;;;5.65;2.28;;;23.10;71.20;;;;;;5107742;28;20019;-84
2021/05/09 10:48:16;;;;;;;3.88;1.98;;;23.20;70.90;;;;;;5111050;28;20028;-84
2021/05/09 10:50:46;;;;;;;;;;;23.30;70.80;;;;;;5100503;28;20032;-84
2021/05/09 10:53:33;;;;;;;4.57;2.25;;;23.40;69.80;;;;;;5099396;28;19915;-85
2021/05/09 10:56:03;;;;;;;4.22;2.03;;;23.30;70.10;;;;;;5105456;28;20024;-84
2021/05/09 10:58:47;;;;;;;3.47;2.13;;;23.30;68.90;;;;;;5107695;28;20031;-84
2021/05/09 11:01:21;;;;;;;5.82;2.53;;;23.20;69.00;;;;;;5095190;28;20031;-84
2021/05/09 11:04:10;;;;;;;4.63;2.40;;;23.10;69.10;;;;;;5112112;28;20031;-84
2021/05/09 11:06:44;;;;;;;4.68;2.38;;;23.10;70.10;;;;;;5067907;28;20040;-84
2021/05/09 11:09:13;;;;;;;5.40;2.10;;;23.10;70.90;;;;;;5083621;28;20058;-84
2021/05/09 11:11:38;;;;;;;4.13;1.95;;;23.00;71.10;;;;;;5112797;28;20076;-85
2021/05/09 11:14:11;;;;;;;3.28;1.90;;;23.00;71.40;;;;;;5112696;28;20012;-86
2021/05/09 11:16:36;;;;;;;4.05;2.13;;;23.00;71.60;;;;;;5112704;28;20019;-86
2021/05/09 11:19:15;;;;;;;5.25;2.22;;;23.00;71.70;;;;;;5102296;28;20384;-86
2021/05/09 11:21:45;;;;;;;4.88;1.80;;;22.90;70.60;;;;;;5094642;28;20407;-84
2021/05/09 11:24:25;;;;;;;3.60;1.80;;;22.80;70.40;;;;;;5102862;28;20024;-86
2021/05/09 11:26:55;;;;;;;6.28;1.90;;;22.80;70.80;;;;;;5112769;28;20671;-86
2021/05/09 11:29:26;;;;;;;5.00;2.03;;;22.80;71.60;;;;;;5089264;28;20020;-85
2021/05/09 11:31:53;;;;;;;3.17;1.92;;;22.80;72.40;;;;;;5112263;28;20035;-86
2021/05/09 11:34:20;;;;;;;3.08;1.80;;;22.90;72.90;;;;;;5106982;28;20024;-84
2021/05/09 11:36:51;;;;;;;3.70;2.38;;;22.90;73.10;;;;;;5088839;28;20050;-84
2021/05/09 11:39:37;;;;;;;4.55;2.33;;;23.00;72.30;;;;;;5088896;28;20016;-85
2021/05/09 11:42:04;;;;;;;5.28;2.10;;;23.00;72.20;;;;;;5099653;28;20426;-84
2021/05/09 11:44:34;;;;;;;3.42;2.10;;;23.00;72.70;;;;;;5093431;28;20373;-84
2021/05/09 11:47:04;;;;;;;5.50;2.20;;;23.00;72.40;;;;;;5091187;28;20016;-84
2021/05/09 11:49:31;;;;;;;8.33;2.77;;;23.10;72.40;;;;;;5106696;28;20546;-84
2021/05/09 11:52:22;;;;;;;3.53;2.10;;;23.10;72.60;;;;;;5082822;28;20023;-84
2021/05/09 11:54:54;;;;;;;3.28;2.08;;;23.10;73.20;;;;;;5062015;28;20028;-85
2021/05/09 11:57:22;;;;;;;4.00;2.08;;;23.10;73.20;;;;;;5091533;28;20196;-85
2021/05/09 11:59:49;;;;;;;3.00;1.90;;;23.10;72.70;;;;;;5095698;28;20491;-85
2021/05/09 12:02:20;;;;;;;7.55;2.60;;;23.00;72.30;;;;;;5098658;28;20031;-84
2021/05/09 12:05:02;;;;;;;4.10;2.10;;;23.00;72.20;;;;;;5108235;28;20124;-85
2021/05/09 12:07:30;;;;;;;4.88;2.22;;;23.00;72.60;;;;;;5085793;28;20027;-83
2021/05/09 12:10:08;;;;;;;3.95;2.10;;;22.90;72.80;;;;;;5078318;28;20169;-83
2021/05/09 12:12:36;;;;;;;3.67;2.22;;;22.90;72.90;;;;;;5103898;28;20058;-86
2021/05/09 12:15:11;;;;;;;2.78;2.10;;;22.90;73.80;;;;;;5117123;28;20072;-85
2021/05/09 12:17:49;;;;;;;7.82;2.15;;;22.90;73.70;;;;;;5090968;28;20024;-85
2021/05/09 12:20:33;;;;;;;4.25;1.90;;;22.90;74.40;;;;;;5104762;28;20031;-85
2021/05/09 12:23:07;;;;;;;3.03;1.98;;;22.90;75.10;;;;;;5087911;28;20020;-85
2021/05/09 12:25:37;;;;;;;2.65;1.90;;;22.90;75.70;;;;;;5094265;28;20418;-84
2021/05/09 12:28:20;;;;;;;3.00;2.00;;;23.00;74.70;;;;;;5098095;28;20019;-84
2021/05/09 12:30:50;;;;;;;4.97;2.40;;;23.00;74.80;;;;;;5092027;28;20051;-86
2021/05/09 12:33:29;;;;;;;4.90;2.40;;;23.00;73.80;;;;;;5080358;28;20019;-87
2021/05/09 12:35:57;;;;;;;3.70;1.83;;;23.10;72.70;;;;;;5085981;28;20030;-85
2021/05/09 12:38:33;;;;;;;4.43;2.10;;;23.10;72.20;;;;;;5080419;28;20031;-86
2021/05/09 12:41:03;;;;;;;4.15;2.20;;;23.20;71.50;;;;;;5109145;28;20020;-87
2021/05/09 12:43:52;;;;;;;6.95;2.40;;;23.30;70.10;;;;;;5094242;28;20047;-86
2021/05/09 12:46:42;;;;;;;6.55;2.00;;;23.40;68.90;;;;;;5103578;28;20102;-85
2021/05/09 12:49:08;;;;;;;2.75;2.00;;;23.40;68.20;;;;;;5093123;28;20106;-86
2021/05/09 12:51:33;;;;;;;5.70;1.90;;;23.50;67.90;;;;;;5107055;28;20067;-84
2021/05/09 12:53:59;;;;;;;3.25;1.80;;;23.50;67.30;;;;;;5084343;28;20038;-84
2021/05/09 12:56:25;;;;;;;3.60;1.95;;;23.60;67.60;;;;;;5098527;28;20032;-84
2021/05/09 12:59:15;;;;;;;2.80;1.80;;;23.60;67.30;;;;;;5104041;27;20396;-84
2021/05/09 13:01:58;;;;;;;2.83;1.67;;;23.60;67.40;;;;;;5118088;28;20020;-85